sensor_id;sensor_type;location;lat;lon;timestamp;temperature;humidity
23335;DHT22;11839;48.598;8.870;2023-01-13T00:00:32;11.10;99.90
23335;DHT22;11839;48.598;8.870;2023-01-13T00:03:00;11.10;99.90
23335;DHT22;11839;48.598;8.870;2023-01-13T00:05:27;11.20;99.90
23335;DHT22;11839;48.598;8.870;2023-01-13T00:07:54;11.00;99.90
23335;DHT22;11839;48.598;8.870;2023-01-13T00:10:21;10.90;99.90
23335;DHT22;11839;48.598;8.870;2023-01-13T00:12:47;10.90;99.90
23335;DHT22;11839;48.598;8.870;2023-01-13T00:15:14;11.10;99.90
23335;DHT22;11839;48.598;8.870;2023-01-13T00:17:41;11.00;99.90
23335;DHT22;11839;48.598;8.870;2023-01-13T00:20:11;11.20;99.90
23335;DHT22;11839;48.598;8.870;2023-01-13T00:22:38;11.20;99.90
23335;DHT22;11839;48.598;8.870;2023-01-13T00:25:05;11.30;99.90
23335;DHT22;11839;48.598;8.870;2023-01-13T00:27:32;11.30;99.90
23335;DHT22;11839;48.598;8.870;2023-01-13T00:29:59;11.30;99.90
23335;DHT22;11839;48.598;8.870;2023-01-13T00:32:26;11.30;99.90
23335;DHT22;11839;48.598;8.870;2023-01-13T00:34:53;11.30;99.90
23335;DHT22;11839;48.598;8.870;2023-01-13T00:37:22;11.30;99.90
23335;DHT22;11839;48.598;8.870;2023-01-13T00:39:49;11.40;99.90
23335;DHT22;11839;48.598;8.870;2023-01-13T00:42:16;11.40;99.90
23335;DHT22;11839;48.598;8.870;2023-01-13T00:45:01;11.30;99.90
23335;DHT22;11839;48.598;8.870;2023-01-13T00:47:28;11.50;99.90
23335;DHT22;11839;48.598;8.870;2023-01-13T00:49:56;11.40;99.90
23335;DHT22;11839;48.598;8.870;2023-01-13T00:52:24;11.50;99.90
23335;DHT22;11839;48.598;8.870;2023-01-13T00:54:51;11.30;99.90
23335;DHT22;11839;48.598;8.870;2023-01-13T00:57:18;11.30;99.90
23335;DHT22;11839;48.598;8.870;2023-01-13T00:59:45;11.30;99.90
23335;DHT22;11839;48.598;8.870;2023-01-13T01:02:12;11.30;99.90
23335;DHT22;11839;48.598;8.870;2023-01-13T01:04:39;11.30;99.90
23335;DHT22;11839;48.598;8.870;2023-01-13T01:07:06;11.40;99.90
23335;DHT22;11839;48.598;8.870;2023-01-13T01:09:34;11.50;99.90
23335;DHT22;11839;48.598;8.870;2023-01-13T01:12:01;11.50;99.90
23335;DHT22;11839;48.598;8.870;2023-01-13T01:14:27;11.50;99.90
23335;DHT22;11839;48.598;8.870;2023-01-13T01:16:54;11.40;99.90
23335;DHT22;11839;48.598;8.870;2023-01-13T01:19:21;11.30;99.90
23335;DHT22;11839;48.598;8.870;2023-01-13T01:21:48;11.40;99.90
23335;DHT22;11839;48.598;8.870;2023-01-13T01:24:14;11.30;99.90
23335;DHT22;11839;48.598;8.870;2023-01-13T01:26:43;11.40;99.90
23335;DHT22;11839;48.598;8.870;2023-01-13T01:29:11;11.30;99.90
23335;DHT22;11839;48.598;8.870;2023-01-13T01:31:39;11.10;99.90
23335;DHT22;11839;48.598;8.870;2023-01-13T01:34:06;11.20;99.90
23335;DHT22;11839;48.598;8.870;2023-01-13T01:36:33;11.30;99.90
23335;DHT22;11839;48.598;8.870;2023-01-13T01:39:01;11.30;99.90
23335;DHT22;11839;48.598;8.870;2023-01-13T01:41:29;11.20;99.90
23335;DHT22;11839;48.598;8.870;2023-01-13T01:44:00;11.30;99.90
23335;DHT22;11839;48.598;8.870;2023-01-13T01:46:33;11.20;99.90
23335;DHT22;11839;48.598;8.870;2023-01-13T01:49:12;11.10;99.90
23335;DHT22;11839;48.598;8.870;2023-01-13T01:51:43;11.20;99.90
23335;DHT22;11839;48.598;8.870;2023-01-13T01:54:13;11.40;99.90
23335;DHT22;11839;48.598;8.870;2023-01-13T01:56:42;11.50;99.90
23335;DHT22;11839;48.598;8.870;2023-01-13T01:59:11;11.10;99.90
23335;DHT22;11839;48.598;8.870;2023-01-13T02:01:39;11.00;99.90
23335;DHT22;11839;48.598;8.870;2023-01-13T02:04:11;10.90;99.90
23335;DHT22;11839;48.598;8.870;2023-01-13T02:06:40;11.10;99.90
23335;DHT22;11839;48.598;8.870;2023-01-13T02:09:07;11.20;99.90
23335;DHT22;11839;48.598;8.870;2023-01-13T02:11:35;11.10;99.90
23335;DHT22;11839;48.598;8.870;2023-01-13T02:14:24;11.00;99.90
23335;DHT22;11839;48.598;8.870;2023-01-13T02:17:00;11.00;99.90
23335;DHT22;11839;48.598;8.870;2023-01-13T02:25:43;11.00;99.90
23335;DHT22;11839;48.598;8.870;2023-01-13T02:28:35;11.20;99.90
23335;DHT22;11839;48.598;8.870;2023-01-13T02:31:07;11.10;99.90
23335;DHT22;11839;48.598;8.870;2023-01-13T02:34:01;11.10;99.90
23335;DHT22;11839;48.598;8.870;2023-01-13T02:36:36;10.90;99.90
23335;DHT22;11839;48.598;8.870;2023-01-13T02:39:11;11.00;99.90
23335;DHT22;11839;48.598;8.870;2023-01-13T02:41:44;11.00;99.90
23335;DHT22;11839;48.598;8.870;2023-01-13T02:44:33;11.00;99.90
23335;DHT22;11839;48.598;8.870;2023-01-13T02:47:07;11.00;99.90
23335;DHT22;11839;48.598;8.870;2023-01-13T02:49:37;11.00;99.90
23335;DHT22;11839;48.598;8.870;2023-01-13T02:52:10;11.10;99.90
23335;DHT22;11839;48.598;8.870;2023-01-13T02:54:41;11.10;99.90
23335;DHT22;11839;48.598;8.870;2023-01-13T02:57:09;10.80;99.90
23335;DHT22;11839;48.598;8.870;2023-01-13T02:59:39;10.90;99.90
23335;DHT22;11839;48.598;8.870;2023-01-13T03:02:14;10.80;99.90
23335;DHT22;11839;48.598;8.870;2023-01-13T03:04:45;10.90;99.90
23335;DHT22;11839;48.598;8.870;2023-01-13T03:10:30;10.80;99.90
23335;DHT22;11839;48.598;8.870;2023-01-13T03:13:04;10.80;99.90
23335;DHT22;11839;48.598;8.870;2023-01-13T03:15:41;10.80;99.90
23335;DHT22;11839;48.598;8.870;2023-01-13T03:18:20;10.90;99.90
23335;DHT22;11839;48.598;8.870;2023-01-13T03:20:55;10.80;99.90
23335;DHT22;11839;48.598;8.870;2023-01-13T03:23:30;10.90;99.90
23335;DHT22;11839;48.598;8.870;2023-01-13T03:26:05;10.90;99.90
23335;DHT22;11839;48.598;8.870;2023-01-13T03:28:37;11.00;99.90
23335;DHT22;11839;48.598;8.870;2023-01-13T03:31:08;11.00;99.90
23335;DHT22;11839;48.598;8.870;2023-01-13T03:33:41;11.10;99.90
23335;DHT22;11839;48.598;8.870;2023-01-13T03:36:12;11.10;99.90
23335;DHT22;11839;48.598;8.870;2023-01-13T03:38:44;11.10;99.90
23335;DHT22;11839;48.598;8.870;2023-01-13T03:41:15;11.20;99.90
23335;DHT22;11839;48.598;8.870;2023-01-13T03:43:49;11.20;99.90
23335;DHT22;11839;48.598;8.870;2023-01-13T03:46:41;11.30;99.90
23335;DHT22;11839;48.598;8.870;2023-01-13T03:49:15;11.10;99.90
23335;DHT22;11839;48.598;8.870;2023-01-13T03:51:47;11.00;99.90
23335;DHT22;11839;48.598;8.870;2023-01-13T03:54:18;11.00;99.90
23335;DHT22;11839;48.598;8.870;2023-01-13T03:56:48;11.10;99.90
23335;DHT22;11839;48.598;8.870;2023-01-13T03:59:19;11.20;99.90
23335;DHT22;11839;48.598;8.870;2023-01-13T04:01:51;11.00;99.90
23335;DHT22;11839;48.598;8.870;2023-01-13T04:04:28;11.00;99.90
23335;DHT22;11839;48.598;8.870;2023-01-13T04:06:59;11.10;99.90
23335;DHT22;11839;48.598;8.870;2023-01-13T04:09:30;11.00;99.90
23335;DHT22;11839;48.598;8.870;2023-01-13T04:12:02;11.00;99.90
23335;DHT22;11839;48.598;8.870;2023-01-13T04:14:29;11.00;99.90
23335;DHT22;11839;48.598;8.870;2023-01-13T04:16:56;10.90;99.90
23335;DHT22;11839;48.598;8.870;2023-01-13T04:19:24;10.90;99.90
23335;DHT22;11839;48.598;8.870;2023-01-13T04:21:51;11.10;99.90
23335;DHT22;11839;48.598;8.870;2023-01-13T04:24:18;11.20;99.90
23335;DHT22;11839;48.598;8.870;2023-01-13T04:26:45;11.30;99.90
23335;DHT22;11839;48.598;8.870;2023-01-13T04:29:11;11.20;99.90
23335;DHT22;11839;48.598;8.870;2023-01-13T04:31:38;11.40;99.90
23335;DHT22;11839;48.598;8.870;2023-01-13T04:34:05;11.10;99.90
23335;DHT22;11839;48.598;8.870;2023-01-13T04:36:33;11.00;99.90
23335;DHT22;11839;48.598;8.870;2023-01-13T04:39:00;11.10;99.90
23335;DHT22;11839;48.598;8.870;2023-01-13T04:41:27;11.20;99.90
23335;DHT22;11839;48.598;8.870;2023-01-13T04:44:14;11.20;99.90
23335;DHT22;11839;48.598;8.870;2023-01-13T04:46:41;11.10;99.90
23335;DHT22;11839;48.598;8.870;2023-01-13T04:49:08;11.10;99.90
23335;DHT22;11839;48.598;8.870;2023-01-13T04:51:36;11.20;99.90
23335;DHT22;11839;48.598;8.870;2023-01-13T04:54:03;11.00;99.90
23335;DHT22;11839;48.598;8.870;2023-01-13T04:56:30;11.20;99.90
23335;DHT22;11839;48.598;8.870;2023-01-13T04:58:57;11.40;99.90
23335;DHT22;11839;48.598;8.870;2023-01-13T05:01:24;11.70;99.90
23335;DHT22;11839;48.598;8.870;2023-01-13T05:03:50;11.60;99.90
23335;DHT22;11839;48.598;8.870;2023-01-13T05:06:17;11.50;99.90
23335;DHT22;11839;48.598;8.870;2023-01-13T05:08:45;11.70;99.90
23335;DHT22;11839;48.598;8.870;2023-01-13T05:11:12;11.40;99.90
23335;DHT22;11839;48.598;8.870;2023-01-13T05:13:53;10.90;99.90
23335;DHT22;11839;48.598;8.870;2023-01-13T05:16:37;11.00;99.90
23335;DHT22;11839;48.598;8.870;2023-01-13T05:19:21;10.80;99.90
23335;DHT22;11839;48.598;8.870;2023-01-13T05:21:48;10.90;99.90
23335;DHT22;11839;48.598;8.870;2023-01-13T05:24:33;10.90;99.90
23335;DHT22;11839;48.598;8.870;2023-01-13T05:27:17;10.90;99.90
23335;DHT22;11839;48.598;8.870;2023-01-13T05:29:44;10.80;99.90
23335;DHT22;11839;48.598;8.870;2023-01-13T05:32:11;10.90;99.90
23335;DHT22;11839;48.598;8.870;2023-01-13T05:34:38;10.80;99.90
23335;DHT22;11839;48.598;8.870;2023-01-13T05:37:04;10.80;99.90
23335;DHT22;11839;48.598;8.870;2023-01-13T05:39:34;10.70;99.90
23335;DHT22;11839;48.598;8.870;2023-01-13T05:42:14;10.60;99.90
23335;DHT22;11839;48.598;8.870;2023-01-13T05:44:58;10.80;99.90
23335;DHT22;11839;48.598;8.870;2023-01-13T05:47:25;11.00;99.90
23335;DHT22;11839;48.598;8.870;2023-01-13T05:49:52;11.00;99.90
23335;DHT22;11839;48.598;8.870;2023-01-13T05:52:19;11.10;99.90
23335;DHT22;11839;48.598;8.870;2023-01-13T05:54:47;11.00;99.90
23335;DHT22;11839;48.598;8.870;2023-01-13T05:57:13;10.90;99.90
23335;DHT22;11839;48.598;8.870;2023-01-13T05:59:40;10.90;99.90
23335;DHT22;11839;48.598;8.870;2023-01-13T06:02:07;11.10;99.90
23335;DHT22;11839;48.598;8.870;2023-01-13T06:04:34;11.10;99.90
23335;DHT22;11839;48.598;8.870;2023-01-13T06:07:01;11.20;99.90
23335;DHT22;11839;48.598;8.870;2023-01-13T06:09:28;11.10;99.90
23335;DHT22;11839;48.598;8.870;2023-01-13T06:11:56;11.20;99.90
23335;DHT22;11839;48.598;8.870;2023-01-13T06:14:23;11.00;99.90
23335;DHT22;11839;48.598;8.870;2023-01-13T06:16:49;11.10;99.90
23335;DHT22;11839;48.598;8.870;2023-01-13T06:19:16;11.00;99.90
23335;DHT22;11839;48.598;8.870;2023-01-13T06:21:43;11.10;99.90
23335;DHT22;11839;48.598;8.870;2023-01-13T06:24:10;11.30;99.90
23335;DHT22;11839;48.598;8.870;2023-01-13T06:26:38;11.40;99.90
23335;DHT22;11839;48.598;8.870;2023-01-13T06:29:06;11.40;99.90
23335;DHT22;11839;48.598;8.870;2023-01-13T06:31:36;11.30;99.90
23335;DHT22;11839;48.598;8.870;2023-01-13T06:34:08;11.40;99.90
23335;DHT22;11839;48.598;8.870;2023-01-13T06:36:40;11.10;99.90
23335;DHT22;11839;48.598;8.870;2023-01-13T06:39:09;10.90;99.90
23335;DHT22;11839;48.598;8.870;2023-01-13T06:41:39;10.90;99.90
23335;DHT22;11839;48.598;8.870;2023-01-13T06:44:25;10.90;99.90
23335;DHT22;11839;48.598;8.870;2023-01-13T06:46:51;11.00;99.90
23335;DHT22;11839;48.598;8.870;2023-01-13T06:49:18;10.90;99.90
23335;DHT22;11839;48.598;8.870;2023-01-13T06:51:45;11.10;99.90
23335;DHT22;11839;48.598;8.870;2023-01-13T06:54:12;11.10;99.90
23335;DHT22;11839;48.598;8.870;2023-01-13T06:56:39;11.00;99.90
23335;DHT22;11839;48.598;8.870;2023-01-13T06:59:05;11.10;99.90
23335;DHT22;11839;48.598;8.870;2023-01-13T07:01:34;11.20;99.90
23335;DHT22;11839;48.598;8.870;2023-01-13T07:04:00;11.00;99.90
23335;DHT22;11839;48.598;8.870;2023-01-13T07:06:28;11.10;99.90
23335;DHT22;11839;48.598;8.870;2023-01-13T07:08:54;11.20;99.90
23335;DHT22;11839;48.598;8.870;2023-01-13T07:11:21;11.30;99.90
23335;DHT22;11839;48.598;8.870;2023-01-13T07:13:49;11.30;99.90
23335;DHT22;11839;48.598;8.870;2023-01-13T07:16:34;11.20;99.90
23335;DHT22;11839;48.598;8.870;2023-01-13T07:19:01;11.20;99.90
23335;DHT22;11839;48.598;8.870;2023-01-13T07:21:28;11.20;99.90
23335;DHT22;11839;48.598;8.870;2023-01-13T07:23:55;11.30;99.90
23335;DHT22;11839;48.598;8.870;2023-01-13T07:26:21;11.30;99.90
23335;DHT22;11839;48.598;8.870;2023-01-13T07:28:48;11.30;99.90
23335;DHT22;11839;48.598;8.870;2023-01-13T07:31:17;11.30;99.90
23335;DHT22;11839;48.598;8.870;2023-01-13T07:33:46;11.40;99.90
23335;DHT22;11839;48.598;8.870;2023-01-13T07:36:13;11.30;99.90
23335;DHT22;11839;48.598;8.870;2023-01-13T07:38:40;11.30;99.90
23335;DHT22;11839;48.598;8.870;2023-01-13T07:41:11;11.20;99.90
23335;DHT22;11839;48.598;8.870;2023-01-13T07:43:55;11.40;99.90
23335;DHT22;11839;48.598;8.870;2023-01-13T07:46:22;11.60;99.90
23335;DHT22;11839;48.598;8.870;2023-01-13T07:48:50;11.70;99.90
23335;DHT22;11839;48.598;8.870;2023-01-13T07:51:17;11.70;99.90
23335;DHT22;11839;48.598;8.870;2023-01-13T07:53:44;11.50;99.90
23335;DHT22;11839;48.598;8.870;2023-01-13T07:56:11;11.60;99.90
23335;DHT22;11839;48.598;8.870;2023-01-13T07:58:37;11.60;99.90
23335;DHT22;11839;48.598;8.870;2023-01-13T08:01:08;11.70;99.90
23335;DHT22;11839;48.598;8.870;2023-01-13T08:03:36;11.80;99.90
23335;DHT22;11839;48.598;8.870;2023-01-13T08:06:05;11.80;99.90
23335;DHT22;11839;48.598;8.870;2023-01-13T08:08:31;11.70;99.90
23335;DHT22;11839;48.598;8.870;2023-01-13T08:10:59;11.50;99.90
23335;DHT22;11839;48.598;8.870;2023-01-13T08:13:25;11.60;99.90
23335;DHT22;11839;48.598;8.870;2023-01-13T08:15:58;11.50;99.90
23335;DHT22;11839;48.598;8.870;2023-01-13T08:18:25;11.70;99.90
23335;DHT22;11839;48.598;8.870;2023-01-13T08:20:52;11.70;99.90
23335;DHT22;11839;48.598;8.870;2023-01-13T08:23:21;11.70;99.90
23335;DHT22;11839;48.598;8.870;2023-01-13T08:25:48;11.30;99.90
23335;DHT22;11839;48.598;8.870;2023-01-13T08:28:16;11.10;99.90
23335;DHT22;11839;48.598;8.870;2023-01-13T08:30:42;11.00;99.90
23335;DHT22;11839;48.598;8.870;2023-01-13T08:33:11;10.80;99.90
23335;DHT22;11839;48.598;8.870;2023-01-13T08:35:39;11.10;99.90
23335;DHT22;11839;48.598;8.870;2023-01-13T08:38:06;11.10;99.90
23335;DHT22;11839;48.598;8.870;2023-01-13T08:40:35;11.10;99.90
23335;DHT22;11839;48.598;8.870;2023-01-13T08:43:02;11.30;99.90
23335;DHT22;11839;48.598;8.870;2023-01-13T08:45:29;11.10;99.90
23335;DHT22;11839;48.598;8.870;2023-01-13T08:47:55;11.30;99.90
23335;DHT22;11839;48.598;8.870;2023-01-13T08:50:22;11.30;99.90
23335;DHT22;11839;48.598;8.870;2023-01-13T08:52:49;11.20;99.90
23335;DHT22;11839;48.598;8.870;2023-01-13T08:55:16;11.30;99.90
23335;DHT22;11839;48.598;8.870;2023-01-13T08:57:44;11.40;99.90
23335;DHT22;11839;48.598;8.870;2023-01-13T09:00:11;11.40;99.90
23335;DHT22;11839;48.598;8.870;2023-01-13T09:02:38;11.30;99.90
23335;DHT22;11839;48.598;8.870;2023-01-13T09:05:05;11.40;99.90
23335;DHT22;11839;48.598;8.870;2023-01-13T09:07:33;11.30;99.90
23335;DHT22;11839;48.598;8.870;2023-01-13T09:10:00;11.40;99.90
23335;DHT22;11839;48.598;8.870;2023-01-13T09:12:27;11.60;99.90
23335;DHT22;11839;48.598;8.870;2023-01-13T09:15:13;11.40;99.90
23335;DHT22;11839;48.598;8.870;2023-01-13T09:17:42;11.00;99.90
23335;DHT22;11839;48.598;8.870;2023-01-13T09:20:11;10.80;99.90
23335;DHT22;11839;48.598;8.870;2023-01-13T09:22:38;10.00;99.90
23335;DHT22;11839;48.598;8.870;2023-01-13T09:25:05;9.70;99.90
23335;DHT22;11839;48.598;8.870;2023-01-13T09:27:32;9.40;99.90
23335;DHT22;11839;48.598;8.870;2023-01-13T09:29:59;9.10;99.90
23335;DHT22;11839;48.598;8.870;2023-01-13T09:32:27;9.10;99.90
23335;DHT22;11839;48.598;8.870;2023-01-13T09:34:54;9.30;99.90
23335;DHT22;11839;48.598;8.870;2023-01-13T09:37:26;9.50;99.90
23335;DHT22;11839;48.598;8.870;2023-01-13T09:39:52;9.60;99.90
23335;DHT22;11839;48.598;8.870;2023-01-13T09:42:31;9.70;99.90
23335;DHT22;11839;48.598;8.870;2023-01-13T09:45:21;9.70;99.90
23335;DHT22;11839;48.598;8.870;2023-01-13T09:47:55;9.70;99.90
23335;DHT22;11839;48.598;8.870;2023-01-13T09:50:38;9.80;99.90
23335;DHT22;11839;48.598;8.870;2023-01-13T09:53:12;9.60;99.90
23335;DHT22;11839;48.598;8.870;2023-01-13T09:55:42;9.80;99.90
23335;DHT22;11839;48.598;8.870;2023-01-13T09:58:12;10.00;99.90
23335;DHT22;11839;48.598;8.870;2023-01-13T10:00:44;10.00;99.90
23335;DHT22;11839;48.598;8.870;2023-01-13T10:03:20;10.20;99.90
23335;DHT22;11839;48.598;8.870;2023-01-13T10:05:52;10.30;99.90
23335;DHT22;11839;48.598;8.870;2023-01-13T10:08:23;10.30;99.90
23335;DHT22;11839;48.598;8.870;2023-01-13T10:10:53;10.30;99.90
23335;DHT22;11839;48.598;8.870;2023-01-13T10:13:24;10.10;99.90
23335;DHT22;11839;48.598;8.870;2023-01-13T10:16:07;10.30;99.90
23335;DHT22;11839;48.598;8.870;2023-01-13T10:18:49;10.50;99.90
23335;DHT22;11839;48.598;8.870;2023-01-13T10:21:37;10.80;99.90
23335;DHT22;11839;48.598;8.870;2023-01-13T10:24:14;10.80;99.90
23335;DHT22;11839;48.598;8.870;2023-01-13T10:26:53;10.80;99.90
23335;DHT22;11839;48.598;8.870;2023-01-13T10:29:23;10.70;99.90
23335;DHT22;11839;48.598;8.870;2023-01-13T10:31:51;10.60;99.90
23335;DHT22;11839;48.598;8.870;2023-01-13T10:34:20;10.80;99.90
23335;DHT22;11839;48.598;8.870;2023-01-13T10:36:59;11.40;99.90
23335;DHT22;11839;48.598;8.870;2023-01-13T10:39:28;11.40;99.90
23335;DHT22;11839;48.598;8.870;2023-01-13T10:42:05;11.20;99.90
23335;DHT22;11839;48.598;8.870;2023-01-13T10:44:45;10.70;99.90
23335;DHT22;11839;48.598;8.870;2023-01-13T10:47:19;10.60;99.90
23335;DHT22;11839;48.598;8.870;2023-01-13T10:49:59;9.90;99.90
23335;DHT22;11839;48.598;8.870;2023-01-13T10:52:29;9.00;99.90
23335;DHT22;11839;48.598;8.870;2023-01-13T10:54:56;8.40;99.90
23335;DHT22;11839;48.598;8.870;2023-01-13T10:57:24;8.20;99.90
23335;DHT22;11839;48.598;8.870;2023-01-13T10:59:52;8.20;99.90
23335;DHT22;11839;48.598;8.870;2023-01-13T11:02:25;8.20;99.90
23335;DHT22;11839;48.598;8.870;2023-01-13T11:05:16;8.20;99.90
23335;DHT22;11839;48.598;8.870;2023-01-13T11:07:47;7.70;99.90
23335;DHT22;11839;48.598;8.870;2023-01-13T11:10:21;8.00;99.90
23335;DHT22;11839;48.598;8.870;2023-01-13T11:12:57;8.10;99.90
23335;DHT22;11839;48.598;8.870;2023-01-13T11:15:32;8.50;99.90
23335;DHT22;11839;48.598;8.870;2023-01-13T11:18:02;8.50;99.90
23335;DHT22;11839;48.598;8.870;2023-01-13T11:20:35;8.30;99.90
23335;DHT22;11839;48.598;8.870;2023-01-13T11:23:12;8.40;99.90
23335;DHT22;11839;48.598;8.870;2023-01-13T11:25:43;8.20;99.90
23335;DHT22;11839;48.598;8.870;2023-01-13T11:28:24;7.60;99.90
23335;DHT22;11839;48.598;8.870;2023-01-13T11:31:03;7.30;99.90
23335;DHT22;11839;48.598;8.870;2023-01-13T11:33:37;7.30;99.90
23335;DHT22;11839;48.598;8.870;2023-01-13T11:36:11;7.20;99.90
23335;DHT22;11839;48.598;8.870;2023-01-13T11:38:48;7.50;99.90
23335;DHT22;11839;48.598;8.870;2023-01-13T11:41:40;7.50;99.90
23335;DHT22;11839;48.598;8.870;2023-01-13T11:44:17;7.60;99.90
23335;DHT22;11839;48.598;8.870;2023-01-13T11:46:47;7.60;99.90
23335;DHT22;11839;48.598;8.870;2023-01-13T11:49:21;7.80;99.90
23335;DHT22;11839;48.598;8.870;2023-01-13T11:51:55;7.90;99.90
23335;DHT22;11839;48.598;8.870;2023-01-13T11:57:49;8.10;99.90
23335;DHT22;11839;48.598;8.870;2023-01-13T12:00:28;8.50;99.90
23335;DHT22;11839;48.598;8.870;2023-01-13T12:06:15;8.70;99.90
23335;DHT22;11839;48.598;8.870;2023-01-13T12:09:05;8.50;99.90
23335;DHT22;11839;48.598;8.870;2023-01-13T12:11:46;8.60;99.90
23335;DHT22;11839;48.598;8.870;2023-01-13T12:14:42;8.80;99.90
23335;DHT22;11839;48.598;8.870;2023-01-13T12:17:20;8.90;99.90
23335;DHT22;11839;48.598;8.870;2023-01-13T12:19:48;8.80;99.90
23335;DHT22;11839;48.598;8.870;2023-01-13T12:22:20;8.80;99.90
23335;DHT22;11839;48.598;8.870;2023-01-13T12:24:54;8.90;99.90
23335;DHT22;11839;48.598;8.870;2023-01-13T12:27:30;9.10;99.90
23335;DHT22;11839;48.598;8.870;2023-01-13T12:29:59;9.30;99.90
23335;DHT22;11839;48.598;8.870;2023-01-13T12:32:32;9.20;99.90
23335;DHT22;11839;48.598;8.870;2023-01-13T12:35:10;9.40;99.90
23335;DHT22;11839;48.598;8.870;2023-01-13T12:37:46;9.30;99.90
23335;DHT22;11839;48.598;8.870;2023-01-13T12:40:27;9.60;99.90
23335;DHT22;11839;48.598;8.870;2023-01-13T12:42:59;9.50;99.90
23335;DHT22;11839;48.598;8.870;2023-01-13T12:45:47;9.50;99.90
23335;DHT22;11839;48.598;8.870;2023-01-13T12:48:44;9.20;99.90
23335;DHT22;11839;48.598;8.870;2023-01-13T12:51:21;9.20;99.90
23335;DHT22;11839;48.598;8.870;2023-01-13T12:53:48;9.00;99.90
23335;DHT22;11839;48.598;8.870;2023-01-13T12:56:33;9.10;99.90
23335;DHT22;11839;48.598;8.870;2023-01-13T13:02:33;9.60;99.90
23335;DHT22;11839;48.598;8.870;2023-01-13T13:05:36;9.80;99.90
23335;DHT22;11839;48.598;8.870;2023-01-13T13:08:10;9.70;99.90
23335;DHT22;11839;48.598;8.870;2023-01-13T13:10:44;9.80;99.90
23335;DHT22;11839;48.598;8.870;2023-01-13T13:13:39;9.80;99.90
23335;DHT22;11839;48.598;8.870;2023-01-13T13:19:39;9.80;99.90
23335;DHT22;11839;48.598;8.870;2023-01-13T13:25:21;10.00;99.90
23335;DHT22;11839;48.598;8.870;2023-01-13T13:27:58;10.00;99.90
23335;DHT22;11839;48.598;8.870;2023-01-13T13:30:33;9.90;99.90
23335;DHT22;11839;48.598;8.870;2023-01-13T13:33:11;9.90;99.90
23335;DHT22;11839;48.598;8.870;2023-01-13T13:35:50;10.10;99.90
23335;DHT22;11839;48.598;8.870;2023-01-13T13:38:38;10.20;99.90
23335;DHT22;11839;48.598;8.870;2023-01-13T13:41:24;10.00;99.90
23335;DHT22;11839;48.598;8.870;2023-01-13T13:44:14;10.30;99.90
23335;DHT22;11839;48.598;8.870;2023-01-13T13:47:03;10.30;99.90
23335;DHT22;11839;48.598;8.870;2023-01-13T13:49:36;10.60;99.90
23335;DHT22;11839;48.598;8.870;2023-01-13T13:52:08;10.40;99.90
23335;DHT22;11839;48.598;8.870;2023-01-13T13:54:41;10.60;99.90
23335;DHT22;11839;48.598;8.870;2023-01-13T13:57:15;10.30;99.90
23335;DHT22;11839;48.598;8.870;2023-01-13T13:59:42;10.00;99.90
23335;DHT22;11839;48.598;8.870;2023-01-13T14:02:16;10.00;99.90
23335;DHT22;11839;48.598;8.870;2023-01-13T14:04:44;10.20;99.90
23335;DHT22;11839;48.598;8.870;2023-01-13T14:07:15;10.50;99.90
23335;DHT22;11839;48.598;8.870;2023-01-13T14:09:47;10.60;99.90
23335;DHT22;11839;48.598;8.870;2023-01-13T14:12:17;10.70;99.90
23335;DHT22;11839;48.598;8.870;2023-01-13T14:14:45;10.50;99.90
23335;DHT22;11839;48.598;8.870;2023-01-13T14:17:20;10.40;99.90
23335;DHT22;11839;48.598;8.870;2023-01-13T14:19:51;10.30;99.90
23335;DHT22;11839;48.598;8.870;2023-01-13T14:22:19;10.30;99.90
23335;DHT22;11839;48.598;8.870;2023-01-13T14:24:47;10.40;99.90
23335;DHT22;11839;48.598;8.870;2023-01-13T14:27:20;10.50;99.90
23335;DHT22;11839;48.598;8.870;2023-01-13T14:29:50;10.40;99.90
23335;DHT22;11839;48.598;8.870;2023-01-13T14:32:22;9.90;99.90
23335;DHT22;11839;48.598;8.870;2023-01-13T14:34:50;9.40;99.90
23335;DHT22;11839;48.598;8.870;2023-01-13T14:37:25;9.30;99.90
23335;DHT22;11839;48.598;8.870;2023-01-13T14:39:56;9.20;99.90
23335;DHT22;11839;48.598;8.870;2023-01-13T14:42:23;9.40;99.90
23335;DHT22;11839;48.598;8.870;2023-01-13T14:44:52;9.50;99.90
23335;DHT22;11839;48.598;8.870;2023-01-13T14:47:23;9.60;99.90
23335;DHT22;11839;48.598;8.870;2023-01-13T14:49:54;9.70;99.90
23335;DHT22;11839;48.598;8.870;2023-01-13T14:52:25;9.90;99.90
23335;DHT22;11839;48.598;8.870;2023-01-13T14:55:18;9.80;99.90
23335;DHT22;11839;48.598;8.870;2023-01-13T14:57:46;9.70;99.90
23335;DHT22;11839;48.598;8.870;2023-01-13T15:00:22;9.60;99.90
23335;DHT22;11839;48.598;8.870;2023-01-13T15:03:04;9.30;99.90
23335;DHT22;11839;48.598;8.870;2023-01-13T15:05:40;9.20;99.90
23335;DHT22;11839;48.598;8.870;2023-01-13T15:08:35;9.10;99.90
23335;DHT22;11839;48.598;8.870;2023-01-13T15:11:05;9.30;99.90
23335;DHT22;11839;48.598;8.870;2023-01-13T15:13:37;9.70;99.90
23335;DHT22;11839;48.598;8.870;2023-01-13T15:16:06;9.50;99.90
23335;DHT22;11839;48.598;8.870;2023-01-13T15:18:40;9.50;99.90
23335;DHT22;11839;48.598;8.870;2023-01-13T15:21:07;9.60;99.90
23335;DHT22;11839;48.598;8.870;2023-01-13T15:23:34;9.50;99.90
23335;DHT22;11839;48.598;8.870;2023-01-13T15:26:01;9.60;99.90
23335;DHT22;11839;48.598;8.870;2023-01-13T15:28:29;9.80;99.90
23335;DHT22;11839;48.598;8.870;2023-01-13T15:30:56;9.80;99.90
23335;DHT22;11839;48.598;8.870;2023-01-13T15:33:25;9.70;99.90
23335;DHT22;11839;48.598;8.870;2023-01-13T15:35:54;9.60;99.90
23335;DHT22;11839;48.598;8.870;2023-01-13T15:38:22;9.50;99.90
23335;DHT22;11839;48.598;8.870;2023-01-13T15:40:51;9.50;99.90
23335;DHT22;11839;48.598;8.870;2023-01-13T15:43:19;9.50;99.90
23335;DHT22;11839;48.598;8.870;2023-01-13T15:46:10;9.50;99.90
23335;DHT22;11839;48.598;8.870;2023-01-13T15:49:00;9.40;99.90
23335;DHT22;11839;48.598;8.870;2023-01-13T15:51:28;9.20;99.90
23335;DHT22;11839;48.598;8.870;2023-01-13T15:53:55;9.10;99.90
23335;DHT22;11839;48.598;8.870;2023-01-13T15:56:27;9.00;99.90
23335;DHT22;11839;48.598;8.870;2023-01-13T15:58:54;9.10;99.90
23335;DHT22;11839;48.598;8.870;2023-01-13T16:01:21;9.20;99.90
23335;DHT22;11839;48.598;8.870;2023-01-13T16:03:48;9.20;99.90
23335;DHT22;11839;48.598;8.870;2023-01-13T16:06:18;9.30;99.90
23335;DHT22;11839;48.598;8.870;2023-01-13T16:08:46;9.00;99.90
23335;DHT22;11839;48.598;8.870;2023-01-13T16:11:13;9.30;99.90
23335;DHT22;11839;48.598;8.870;2023-01-13T16:13:40;9.40;99.90
23335;DHT22;11839;48.598;8.870;2023-01-13T16:16:19;9.20;99.90
23335;DHT22;11839;48.598;8.870;2023-01-13T16:18:47;9.10;99.90
23335;DHT22;11839;48.598;8.870;2023-01-13T16:21:14;9.00;99.90
23335;DHT22;11839;48.598;8.870;2023-01-13T16:23:43;9.00;99.90
23335;DHT22;11839;48.598;8.870;2023-01-13T16:26:20;8.80;99.90
23335;DHT22;11839;48.598;8.870;2023-01-13T16:28:47;9.10;99.90